Time;durP1;ratioP1;P1;durP2;ratioP2;P2;SDS_P1;SDS_P2;PMS_P1;PMS_P2;Temp;Humidity;BMP_temperature;BMP_pressure;BME280_temperature;BME280_humidity;BME280_pressure;Samples;Min_cycle;Max_cycle;Signal;HPM_P1;HPM_P2
2022/07/05 00:00:02;;;;;;;2.53;1.90;;;;;;;;;;5006726;28;20539;-89
2022/07/05 00:02:28;;;;;;;2.30;1.92;;;;;;;;;;5005824;28;20207;-88
2022/07/05 00:04:54;;;;;;;2.35;1.80;;;;;;;;;;5006505;28;20184;-89
2022/07/05 00:07:20;;;;;;;5.30;1.98;;;;;;;;;;5006466;28;20201;-88
2022/07/05 00:09:53;;;;;;;2.47;1.65;;;;;;;;;;5021787;28;20571;-87
2022/07/05 00:12:20;;;;;;;1.77;1.67;;;;;;;;;;5007483;28;20183;-88
2022/07/05 00:14:46;;;;;;;2.63;1.90;;;;;;;;;;4999561;28;20184;-88
2022/07/05 00:17:12;;;;;;;2.72;1.75;;;;;;;;;;5006538;28;20265;-89
2022/07/05 00:19:39;;;;;;;1.98;1.65;;;;;;;;;;5006424;28;20270;-88
2022/07/05 00:22:05;;;;;;;4.82;1.80;;;;;;;;;;5007125;28;20277;-89
2022/07/05 00:24:31;;;;;;;2.38;1.90;;;;;;;;;;5007077;28;20231;-87
2022/07/05 00:26:57;;;;;;;1.70;1.60;;;;;;;;;;5006719;28;20703;-88
2022/07/05 00:29:23;;;;;;;2.50;2.08;;;;;;;;;;5007864;28;20195;-88
2022/07/05 00:31:49;;;;;;;3.30;1.90;;;;;;;;;;5006111;28;20198;-87
2022/07/05 00:34:15;;;;;;;2.75;2.13;;;;;;;;;;5005394;28;20211;-88
2022/07/05 00:36:41;;;;;;;4.65;2.03;;;;;;;;;;5006092;28;20206;-89
2022/07/05 00:39:08;;;;;;;2.03;1.80;;;;;;;;;;5007352;28;20201;-88
2022/07/05 00:41:33;;;;;;;2.20;1.98;;;;;;;;;;5021838;28;20192;-88
2022/07/05 00:44:00;;;;;;;2.38;2.03;;;;;;;;;;5007357;28;20306;-89
2022/07/05 00:46:27;;;;;;;2.90;2.17;;;;;;;;;;5022061;28;20279;-88
2022/07/05 00:48:53;;;;;;;2.17;1.70;;;;;;;;;;5008098;28;20191;-89
2022/07/05 00:51:19;;;;;;;3.00;1.88;;;;;;;;;;5009739;28;20760;-88
2022/07/05 00:53:45;;;;;;;2.33;2.00;;;;;;;;;;5011231;28;20261;-88
2022/07/05 00:56:12;;;;;;;1.90;1.70;;;;;;;;;;5009635;28;20580;-89
2022/07/05 00:58:37;;;;;;;3.28;2.05;;;;;;;;;;5009600;28;20175;-88
2022/07/05 01:01:04;;;;;;;4.35;1.92;;;;;;;;;;5009655;28;20768;-88
2022/07/05 01:03:31;;;;;;;2.35;2.10;;;;;;;;;;5009732;28;20211;-89
2022/07/05 01:05:57;;;;;;;3.08;2.17;;;;;;;;;;5009818;28;20237;-89
2022/07/05 01:08:23;;;;;;;3.20;2.25;;;;;;;;;;5010860;28;20206;-88
2022/07/05 01:10:50;;;;;;;3.40;2.10;;;;;;;;;;5001576;28;20184;-89
2022/07/05 01:13:17;;;;;;;2.58;1.90;;;;;;;;;;5026263;28;20237;-89
2022/07/05 01:15:43;;;;;;;3.33;2.10;;;;;;;;;;5009245;28;20209;-89
2022/07/05 01:18:10;;;;;;;3.75;2.03;;;;;;;;;;5009665;28;20278;-88
2022/07/05 01:20:36;;;;;;;2.58;2.17;;;;;;;;;;5025457;28;20258;-89
2022/07/05 01:23:02;;;;;;;2.28;2.00;;;;;;;;;;5009003;28;20276;-87
2022/07/05 01:25:29;;;;;;;2.78;2.10;;;;;;;;;;5009032;28;20183;-89
2022/07/05 01:27:56;;;;;;;2.42;2.22;;;;;;;;;;5009052;28;20195;-90
2022/07/05 01:30:22;;;;;;;2.70;2.50;;;;;;;;;;5003237;28;20180;-89
2022/07/05 01:32:48;;;;;;;2.40;2.10;;;;;;;;;;5024646;28;20207;-88
2022/07/05 01:35:20;;;;;;;2.30;1.92;;;;;;;;;;5008171;28;20231;-89
2022/07/05 01:37:46;;;;;;;3.05;2.25;;;;;;;;;;5008734;28;20211;-89
2022/07/05 01:40:12;;;;;;;3.08;2.10;;;;;;;;;;5001713;28;20182;-88
2022/07/05 01:42:38;;;;;;;3.67;1.95;;;;;;;;;;5024741;28;21130;-88
2022/07/05 01:45:04;;;;;;;3.22;2.25;;;;;;;;;;5010061;28;20179;-88
2022/07/05 01:47:31;;;;;;;2.47;2.10;;;;;;;;;;5001536;28;20238;-90
2022/07/05 01:49:59;;;;;;;2.47;2.28;;;;;;;;;;5008623;28;20183;-89
2022/07/05 01:52:28;;;;;;;2.85;1.92;;;;;;;;;;5023006;28;20191;-88
2022/07/05 01:54:54;;;;;;;3.22;2.17;;;;;;;;;;5008375;28;20188;-88
2022/07/05 01:57:20;;;;;;;3.90;2.40;;;;;;;;;;5009793;28;21186;-89
2022/07/05 01:59:46;;;;;;;4.53;2.50;;;;;;;;;;5007323;28;20207;-89
2022/07/05 02:02:12;;;;;;;3.28;2.05;;;;;;;;;;5009746;28;20207;-89
2022/07/05 02:04:38;;;;;;;4.20;3.25;;;;;;;;;;5008669;28;20176;-88
2022/07/05 02:07:07;;;;;;;2.78;2.47;;;;;;;;;;5025096;28;20215;-90
2022/07/05 02:09:34;;;;;;;3.88;2.65;;;;;;;;;;5007695;28;20237;-89
2022/07/05 02:12:00;;;;;;;2.58;2.38;;;;;;;;;;5008336;28;20188;-89
2022/07/05 02:14:26;;;;;;;2.60;2.40;;;;;;;;;;5024600;28;20203;-89
2022/07/05 02:16:52;;;;;;;5.53;2.42;;;;;;;;;;5000640;28;20214;-88
2022/07/05 02:19:18;;;;;;;2.88;2.60;;;;;;;;;;5024224;28;20183;-89
2022/07/05 02:21:44;;;;;;;3.33;2.45;;;;;;;;;;5008137;28;20202;-89
2022/07/05 02:24:10;;;;;;;3.10;2.78;;;;;;;;;;5008242;28;20196;-90
2022/07/05 02:26:36;;;;;;;5.43;2.75;;;;;;;;;;5024357;28;20196;-89
2022/07/05 02:29:03;;;;;;;3.38;2.65;;;;;;;;;;5024365;28;20188;-89
2022/07/05 02:31:29;;;;;;;3.38;2.40;;;;;;;;;;5007081;28;20213;-89
2022/07/05 02:33:55;;;;;;;2.60;2.22;;;;;;;;;;5007850;28;20216;-90
2022/07/05 02:36:21;;;;;;;3.47;2.63;;;;;;;;;;5007588;28;20238;-91
2022/07/05 02:38:47;;;;;;;3.00;2.50;;;;;;;;;;5000805;28;20187;-91
2022/07/05 02:41:13;;;;;;;4.65;2.90;;;;;;;;;;5024432;28;20275;-90
2022/07/05 02:43:40;;;;;;;6.22;2.50;;;;;;;;;;5023615;28;20226;-89
2022/07/05 02:46:06;;;;;;;2.80;2.50;;;;;;;;;;5007819;28;20195;-89
2022/07/05 02:48:33;;;;;;;2.67;2.47;;;;;;;;;;5008042;28;20184;-88
2022/07/05 02:50:59;;;;;;;3.05;2.60;;;;;;;;;;4998083;28;20187;-89
2022/07/05 02:53:27;;;;;;;4.82;2.80;;;;;;;;;;5006653;28;20207;-89
2022/07/05 02:55:53;;;;;;;6.07;2.78;;;;;;;;;;5007337;28;20184;-89
2022/07/05 02:58:19;;;;;;;6.65;3.40;;;;;;;;;;5000085;28;20189;-89
2022/07/05 03:00:45;;;;;;;5.15;3.25;;;;;;;;;;5008521;28;20188;-89
2022/07/05 03:03:11;;;;;;;5.55;3.08;;;;;;;;;;5022403;28;20226;-88
2022/07/05 03:05:37;;;;;;;3.50;3.08;;;;;;;;;;5006435;28;20176;-89
2022/07/05 03:08:03;;;;;;;3.67;3.22;;;;;;;;;;5006926;28;20622;-89
2022/07/05 03:10:29;;;;;;;3.67;2.70;;;;;;;;;;4997690;28;20191;-89
2022/07/05 03:12:55;;;;;;;7.03;2.63;;;;;;;;;;5006739;28;20215;-89
2022/07/05 03:15:21;;;;;;;3.00;2.75;;;;;;;;;;4999644;28;20218;-89
2022/07/05 03:17:47;;;;;;;3.75;2.75;;;;;;;;;;5022548;28;20211;-89
2022/07/05 03:20:13;;;;;;;4.88;3.05;;;;;;;;;;5006286;28;20183;-89
2022/07/05 03:22:39;;;;;;;3.67;2.85;;;;;;;;;;5006962;28;20217;-89
2022/07/05 03:25:05;;;;;;;4.72;2.97;;;;;;;;;;5006176;28;20226;-89
2022/07/05 03:27:31;;;;;;;3.92;2.42;;;;;;;;;;5006137;28;20671;-89
2022/07/05 03:29:57;;;;;;;7.75;2.97;;;;;;;;;;5006353;28;20287;-89
2022/07/05 03:32:23;;;;;;;6.15;3.00;;;;;;;;;;4996136;28;20197;-88
2022/07/05 03:34:49;;;;;;;6.20;2.80;;;;;;;;;;5006886;28;20267;-88
2022/07/05 03:37:15;;;;;;;5.83;3.17;;;;;;;;;;5006404;28;20269;-89
2022/07/05 03:39:41;;;;;;;6.65;3.10;;;;;;;;;;5022287;28;20203;-89
2022/07/05 03:42:07;;;;;;;7.15;3.10;;;;;;;;;;5005653;28;20233;-89
2022/07/05 03:44:33;;;;;;;4.07;2.60;;;;;;;;;;5006303;28;20557;-88
2022/07/05 03:47:00;;;;;;;4.13;3.13;;;;;;;;;;5006484;28;20198;-88
2022/07/05 03:49:26;;;;;;;6.28;3.17;;;;;;;;;;5022608;28;20198;-89
2022/07/05 03:51:52;;;;;;;7.68;3.03;;;;;;;;;;5021782;28;20187;-89
2022/07/05 03:54:18;;;;;;;6.15;3.28;;;;;;;;;;5006780;28;20239;-89
2022/07/05 03:56:44;;;;;;;5.88;3.13;;;;;;;;;;5006899;28;20235;-89
2022/07/05 03:59:10;;;;;;;7.50;2.78;;;;;;;;;;5006247;28;20667;-89
2022/07/05 04:01:36;;;;;;;2.85;2.60;;;;;;;;;;5006323;28;20266;-89
2022/07/05 04:04:02;;;;;;;4.80;2.80;;;;;;;;;;4997880;28;20254;-87
2022/07/05 04:06:28;;;;;;;6.35;2.35;;;;;;;;;;5005562;28;20219;-89
2022/07/05 04:08:54;;;;;;;9.75;2.60;;;;;;;;;;5005656;28;20278;-89
2022/07/05 04:11:46;;;;;;;6.63;2.58;;;;;;;;;;5006687;28;20622;-89
2022/07/05 04:14:12;;;;;;;3.67;2.22;;;;;;;;;;5022539;28;20215;-89
2022/07/05 04:16:38;;;;;;;7.32;2.40;;;;;;;;;;5021322;28;20215;-88
2022/07/05 04:19:04;;;;;;;2.80;2.00;;;;;;;;;;5005744;28;20582;-89
2022/07/05 04:21:30;;;;;;;7.57;2.50;;;;;;;;;;5004882;28;20661;-89
2022/07/05 04:23:56;;;;;;;2.38;2.17;;;;;;;;;;4998349;28;21247;-90
2022/07/05 04:26:22;;;;;;;2.95;2.15;;;;;;;;;;4996796;28;20229;-90
2022/07/05 04:28:48;;;;;;;6.38;2.40;;;;;;;;;;5022094;28;20182;-89
2022/07/05 04:31:14;;;;;;;3.30;2.20;;;;;;;;;;4998707;28;20560;-89
2022/07/05 04:33:40;;;;;;;3.03;2.20;;;;;;;;;;5006402;28;20211;-89
2022/07/05 04:36:06;;;;;;;3.67;2.10;;;;;;;;;;5006857;28;20887;-89
2022/07/05 04:38:32;;;;;;;3.85;2.40;;;;;;;;;;5007634;28;20190;-89
2022/07/05 04:40:58;;;;;;;5.53;2.20;;;;;;;;;;5022775;28;20187;-89
2022/07/05 04:43:24;;;;;;;3.25;2.05;;;;;;;;;;5022224;28;20199;-89
2022/07/05 04:45:50;;;;;;;6.72;2.45;;;;;;;;;;5006888;28;20215;-90
2022/07/05 04:48:16;;;;;;;4.22;2.45;;;;;;;;;;5022285;28;20183;-90
2022/07/05 04:50:42;;;;;;;4.68;2.20;;;;;;;;;;5021504;28;20183;-88
2022/07/05 04:53:08;;;;;;;3.75;2.15;;;;;;;;;;5006553;28;20203;-89
2022/07/05 04:55:34;;;;;;;4.15;2.03;;;;;;;;;;5005866;28;20180;-90
2022/07/05 04:58:00;;;;;;;3.38;2.00;;;;;;;;;;5005936;28;20987;-90
2022/07/05 05:00:28;;;;;;;4.95;1.85;;;;;;;;;;5008791;28;20191;-86
2022/07/05 05:02:54;;;;;;;3.58;2.22;;;;;;;;;;5022376;28;20207;-87
2022/07/05 05:05:20;;;;;;;4.55;2.00;;;;;;;;;;5006355;28;20227;-87
2022/07/05 05:07:46;;;;;;;3.90;1.80;;;;;;;;;;5021585;28;20211;-86
2022/07/05 05:10:12;;;;;;;3.50;1.60;;;;;;;;;;5004478;28;20187;-86
2022/07/05 05:12:40;;;;;;;6.07;1.83;;;;;;;;;;4996384;28;20610;-87
2022/07/05 05:15:09;;;;;;;3.15;1.90;;;;;;;;;;4997623;28;20237;-87
2022/07/05 05:17:39;;;;;;;4.28;1.75;;;;;;;;;;5020673;28;20208;-86
2022/07/05 05:20:16;;;;;;;2.42;2.05;;;;;;;;;;5020580;28;20196;-86
2022/07/05 05:22:42;;;;;;;1.98;1.52;;;;;;;;;;4996247;28;20211;-86
2022/07/05 05:25:09;;;;;;;3.05;2.05;;;;;;;;;;5020315;28;20187;-87
2022/07/05 05:27:35;;;;;;;3.00;1.83;;;;;;;;;;5006517;28;20194;-86
2022/07/05 05:30:01;;;;;;;5.03;1.92;;;;;;;;;;5003920;28;20184;-86
2022/07/05 05:32:27;;;;;;;3.70;1.80;;;;;;;;;;5003537;28;20183;-86
2022/07/05 05:34:53;;;;;;;3.92;1.90;;;;;;;;;;5007496;28;20209;-87
2022/07/05 05:37:19;;;;;;;2.38;1.60;;;;;;;;;;5007997;28;20207;-86
2022/07/05 05:39:45;;;;;;;4.40;1.98;;;;;;;;;;5024593;28;20183;-86
2022/07/05 05:42:11;;;;;;;2.90;2.08;;;;;;;;;;5007751;28;20214;-86
2022/07/05 05:44:37;;;;;;;1.88;1.70;;;;;;;;;;5009470;28;20255;-87
2022/07/05 05:47:03;;;;;;;3.72;1.90;;;;;;;;;;5007350;28;20194;-86
2022/07/05 05:49:29;;;;;;;3.35;1.70;;;;;;;;;;5006676;28;20735;-87
2022/07/05 05:51:55;;;;;;;3.40;1.92;;;;;;;;;;5023579;28;20195;-88
2022/07/05 05:54:21;;;;;;;4.32;2.38;;;;;;;;;;5008589;28;20287;-89
2022/07/05 05:56:47;;;;;;;6.22;2.38;;;;;;;;;;5008914;28;20808;-88
2022/07/05 05:59:13;;;;;;;3.97;2.78;;;;;;;;;;5008879;28;20188;-86
2022/07/05 06:01:40;;;;;;;2.67;2.30;;;;;;;;;;5007343;28;20186;-87
2022/07/05 06:04:06;;;;;;;2.75;2.08;;;;;;;;;;4999352;28;20246;-87
2022/07/05 06:06:32;;;;;;;3.97;2.47;;;;;;;;;;5008692;28;20180;-86
2022/07/05 06:08:59;;;;;;;2.55;1.95;;;;;;;;;;5008757;28;20180;-86
2022/07/05 06:11:25;;;;;;;4.70;2.50;;;;;;;;;;5006977;28;20290;-87
2022/07/05 06:13:51;;;;;;;3.53;2.10;;;;;;;;;;5007815;28;20214;-87
2022/07/05 06:16:17;;;;;;;4.47;2.05;;;;;;;;;;5023914;28;20207;-87
2022/07/05 06:18:43;;;;;;;2.55;2.00;;;;;;;;;;5024556;28;20265;-86
2022/07/05 06:21:09;;;;;;;3.35;1.95;;;;;;;;;;5007154;28;20681;-87
2022/07/05 06:23:35;;;;;;;3.95;1.83;;;;;;;;;;5007374;28;20324;-86
2022/07/05 06:26:01;;;;;;;4.15;1.88;;;;;;;;;;5007546;28;20195;-86
2022/07/05 06:28:27;;;;;;;4.10;2.00;;;;;;;;;;5007794;28;20183;-86
2022/07/05 06:30:54;;;;;;;4.53;2.17;;;;;;;;;;5008878;28;20183;-86
2022/07/05 06:33:20;;;;;;;5.25;2.38;;;;;;;;;;5008458;28;20207;-86
2022/07/05 06:35:46;;;;;;;6.07;2.30;;;;;;;;;;5010071;28;20184;-86
2022/07/05 06:38:12;;;;;;;3.95;1.80;;;;;;;;;;5008578;28;20638;-86
2022/07/05 06:40:41;;;;;;;3.85;1.90;;;;;;;;;;5007933;28;20184;-86
2022/07/05 06:43:08;;;;;;;2.83;1.80;;;;;;;;;;5008734;28;20195;-86
2022/07/05 06:45:59;;;;;;;2.63;1.63;;;;;;;;;;5007476;28;20230;-86
2022/07/05 06:48:27;;;;;;;3.25;2.05;;;;;;;;;;5008849;28;20203;-86
2022/07/05 06:50:53;;;;;;;3.28;1.95;;;;;;;;;;5000386;28;20272;-86
2022/07/05 06:53:19;;;;;;;2.53;1.98;;;;;;;;;;5023615;28;20211;-86
2022/07/05 06:55:45;;;;;;;4.50;2.13;;;;;;;;;;5000206;28;20186;-86
2022/07/05 06:58:14;;;;;;;3.33;1.80;;;;;;;;;;5021278;28;20689;-86
2022/07/05 07:00:40;;;;;;;2.88;1.75;;;;;;;;;;5003546;28;20183;-86
2022/07/05 07:03:06;;;;;;;4.30;2.03;;;;;;;;;;5003914;28;20459;-86
2022/07/05 07:05:32;;;;;;;3.25;1.83;;;;;;;;;;5003799;28;20197;-86
2022/07/05 07:10:43;;;;;;;2.72;1.50;;;;;;;;;;5005467;28;20202;-86
2022/07/05 07:13:09;;;;;;;4.25;1.83;;;;;;;;;;5004059;28;20208;-86
2022/07/05 07:15:35;;;;;;;3.17;1.48;;;;;;;;;;5003872;28;20191;-86
2022/07/05 07:18:01;;;;;;;1.67;1.58;;;;;;;;;;5004130;28;20302;-86
2022/07/05 07:20:27;;;;;;;2.08;1.48;;;;;;;;;;5003158;28;20306;-86
2022/07/05 07:22:53;;;;;;;3.63;1.50;;;;;;;;;;5004823;28;20218;-87
2022/07/05 07:25:25;;;;;;;1.83;1.17;;;;;;;;;;5002678;28;20190;-87
2022/07/05 07:27:52;;;;;;;3.25;1.45;;;;;;;;;;5019308;28;20560;-88
2022/07/05 07:30:20;;;;;;;2.50;1.40;;;;;;;;;;5002323;28;20187;-87
2022/07/05 07:32:46;;;;;;;7.05;1.90;;;;;;;;;;5003645;28;20204;-86
2022/07/05 07:35:13;;;;;;;3.60;1.90;;;;;;;;;;5004304;28;20238;-87
2022/07/05 07:37:39;;;;;;;3.38;1.80;;;;;;;;;;5003495;28;20203;-86
2022/07/05 07:40:05;;;;;;;3.95;1.88;;;;;;;;;;5004055;28;20185;-86
2022/07/05 07:42:31;;;;;;;4.72;1.80;;;;;;;;;;5020867;28;20212;-86
2022/07/05 07:44:57;;;;;;;3.08;2.30;;;;;;;;;;5003550;28;20678;-89
2022/07/05 07:47:23;;;;;;;5.65;1.98;;;;;;;;;;5001352;28;20191;-90
2022/07/05 07:49:49;;;;;;;3.75;1.90;;;;;;;;;;5001221;28;20338;-89
2022/07/05 07:52:15;;;;;;;2.35;1.52;;;;;;;;;;5001719;28;20184;-89
2022/07/05 07:54:41;;;;;;;3.03;1.90;;;;;;;;;;5002200;28;20221;-89
2022/07/05 07:57:07;;;;;;;3.03;1.70;;;;;;;;;;4991379;28;20245;-90
2022/07/05 07:59:33;;;;;;;5.32;1.90;;;;;;;;;;5001981;28;20183;-89
2022/07/05 08:01:59;;;;;;;2.60;1.60;;;;;;;;;;5002241;28;20184;-88
2022/07/05 08:04:25;;;;;;;2.58;1.60;;;;;;;;;;5002741;28;20428;-88
2022/07/05 08:06:51;;;;;;;2.10;1.85;;;;;;;;;;4987093;28;20464;-88
2022/07/05 08:09:18;;;;;;;5.22;1.80;;;;;;;;;;5000184;28;20191;-87
2022/07/05 08:11:47;;;;;;;3.17;1.73;;;;;;;;;;5016647;28;20221;-88
2022/07/05 08:14:14;;;;;;;2.30;1.73;;;;;;;;;;4989020;28;20237;-88
2022/07/05 08:16:40;;;;;;;4.78;1.90;;;;;;;;;;4996402;28;20212;-87
2022/07/05 08:21:50;;;;;;;2.45;1.60;;;;;;;;;;5006425;28;20743;-87
2022/07/05 08:24:17;;;;;;;3.85;1.90;;;;;;;;;;5005342;28;20203;-86
2022/07/05 08:26:43;;;;;;;3.97;1.95;;;;;;;;;;5022171;28;20188;-86
2022/07/05 08:29:11;;;;;;;3.40;2.00;;;;;;;;;;5021511;28;20261;-86
2022/07/05 08:31:39;;;;;;;5.88;2.20;;;;;;;;;;5006545;28;20609;-86
2022/07/05 08:34:05;;;;;;;4.68;2.33;;;;;;;;;;5005607;28;20325;-86
2022/07/05 08:36:31;;;;;;;4.57;2.45;;;;;;;;;;5004422;28;20207;-86
2022/07/05 08:38:57;;;;;;;3.03;2.00;;;;;;;;;;5004909;28;20190;-86
2022/07/05 08:41:23;;;;;;;4.45;2.15;;;;;;;;;;5021014;28;20203;-86
2022/07/05 08:43:51;;;;;;;4.18;1.77;;;;;;;;;;4997115;28;20693;-86
2022/07/05 08:46:17;;;;;;;3.20;2.00;;;;;;;;;;5005858;28;20190;-86
2022/07/05 08:48:44;;;;;;;4.85;2.40;;;;;;;;;;5021418;28;20645;-88
2022/07/05 08:51:17;;;;;;;2.72;1.92;;;;;;;;;;4998018;28;20254;-83
2022/07/05 08:53:44;;;;;;;3.50;2.38;;;;;;;;;;5020549;28;20203;-83
2022/07/05 08:56:11;;;;;;;28.02;6.30;;;;;;;;;;5021174;28;20190;-84
2022/07/05 08:58:38;;;;;;;4.35;2.67;;;;;;;;;;5023244;28;21058;-84
2022/07/05 09:01:05;;;;;;;40.35;11.20;;;;;;;;;;5003407;28;20242;-84
2022/07/05 09:03:38;;;;;;;11.50;3.17;;;;;;;;;;5003686;28;20200;-84
2022/07/05 09:06:04;;;;;;;6.43;2.35;;;;;;;;;;4999390;28;20211;-84
2022/07/05 09:08:38;;;;;;;13.02;4.60;;;;;;;;;;5000050;28;20478;-84
2022/07/05 09:11:05;;;;;;;2.70;1.40;;;;;;;;;;5005785;28;20350;-84
2022/07/05 09:13:33;;;;;;;12.90;3.60;;;;;;;;;;5004719;28;20195;-84
2022/07/05 09:15:59;;;;;;;12.35;4.05;;;;;;;;;;5003007;28;20556;-84
2022/07/05 09:18:44;;;;;;;5.68;3.05;;;;;;;;;;5004869;28;20183;-84
2022/07/05 09:21:21;;;;;;;11.65;3.83;;;;;;;;;;4996945;28;20262;-83
2022/07/05 09:23:55;;;;;;;3.65;2.20;;;;;;;;;;5019994;28;20203;-84
2022/07/05 09:26:21;;;;;;;2.40;2.00;;;;;;;;;;5004248;28;20238;-83
2022/07/05 09:28:57;;;;;;;15.07;5.50;;;;;;;;;;5004356;28;20198;-84
2022/07/05 09:31:31;;;;;;;4.72;2.78;;;;;;;;;;4997661;28;20183;-84
2022/07/05 09:34:06;;;;;;;4.53;2.28;;;;;;;;;;4990157;28;20627;-85
2022/07/05 09:36:50;;;;;;;10.57;3.30;;;;;;;;;;5003662;28;20203;-84
2022/07/05 09:39:17;;;;;;;13.27;4.80;;;;;;;;;;4994546;28;20209;-84
2022/07/05 09:41:43;;;;;;;7.03;2.20;;;;;;;;;;5004010;28;20183;-84
2022/07/05 09:44:09;;;;;;;5.90;2.63;;;;;;;;;;5004224;28;20203;-85
2022/07/05 09:46:35;;;;;;;8.13;2.33;;;;;;;;;;5005659;28;20246;-84
2022/07/05 09:49:01;;;;;;;33.83;7.80;;;;;;;;;;5003889;28;20187;-85
2022/07/05 09:51:27;;;;;;;6.85;1.92;;;;;;;;;;5003963;28;20565;-84
2022/07/05 09:53:58;;;;;;;13.68;4.80;;;;;;;;;;5003744;28;20250;-84
2022/07/05 09:56:29;;;;;;;11.43;4.43;;;;;;;;;;5004371;28;20294;-84
2022/07/05 09:58:55;;;;;;;8.57;2.83;;;;;;;;;;5003698;28;20588;-85
2022/07/05 10:01:24;;;;;;;3.13;1.50;;;;;;;;;;5004233;28;20179;-83
2022/07/05 10:03:54;;;;;;;4.63;1.60;;;;;;;;;;5004026;28;20677;-84
2022/07/05 10:06:21;;;;;;;2.30;1.23;;;;;;;;;;5004157;28;20579;-83
2022/07/05 10:08:49;;;;;;;5.28;1.50;;;;;;;;;;5003664;28;20701;-86
2022/07/05 10:11:16;;;;;;;2.28;1.40;;;;;;;;;;5004931;28;20179;-85
2022/07/05 10:13:42;;;;;;;2.70;1.25;;;;;;;;;;5019939;28;20687;-84
2022/07/05 10:16:08;;;;;;;2.85;1.20;;;;;;;;;;5003577;28;20184;-85
2022/07/05 10:18:34;;;;;;;2.25;1.27;;;;;;;;;;5002242;28;20450;-85
2022/07/05 10:21:02;;;;;;;3.65;1.60;;;;;;;;;;5002467;28;20234;-84
2022/07/05 10:23:29;;;;;;;2.55;1.50;;;;;;;;;;5004070;28;20211;-86
2022/07/05 10:25:56;;;;;;;3.95;1.20;;;;;;;;;;5019569;28;20462;-85
2022/07/05 10:28:22;;;;;;;3.10;1.30;;;;;;;;;;5003244;28;20653;-86
2022/07/05 10:30:49;;;;;;;2.10;1.25;;;;;;;;;;5003298;28;20184;-85
2022/07/05 10:33:19;;;;;;;2.17;1.10;;;;;;;;;;5002360;28;20218;-85
2022/07/05 10:35:45;;;;;;;1.63;1.20;;;;;;;;;;5004275;28;20184;-85
2022/07/05 10:38:12;;;;;;;1.25;1.00;;;;;;;;;;5003343;28;20426;-85
2022/07/05 10:40:39;;;;;;;1.80;1.40;;;;;;;;;;5019377;28;20184;-85
2022/07/05 10:43:07;;;;;;;1.58;1.00;;;;;;;;;;5002314;28;20203;-86
2022/07/05 10:45:34;;;;;;;1.15;0.98;;;;;;;;;;5004505;28;20217;-85
2022/07/05 10:48:13;;;;;;;1.45;0.85;;;;;;;;;;5002530;28;20192;-85
2022/07/05 10:50:49;;;;;;;2.40;1.10;;;;;;;;;;5003507;28;20187;-85
2022/07/05 10:53:16;;;;;;;1.00;1.00;;;;;;;;;;5002428;28;20203;-85
2022/07/05 10:55:56;;;;;;;2.90;0.85;;;;;;;;;;5017433;28;20192;-85
2022/07/05 10:58:24;;;;;;;2.38;1.05;;;;;;;;;;5017583;28;20585;-85
2022/07/05 11:01:09;;;;;;;1.55;1.00;;;;;;;;;;5002747;28;20250;-85
2022/07/05 11:03:39;;;;;;;1.42;0.82;;;;;;;;;;5018681;28;20203;-85
2022/07/05 11:06:06;;;;;;;1.88;1.10;;;;;;;;;;5003761;28;20212;-85
2022/07/05 11:08:51;;;;;;;1.10;0.98;;;;;;;;;;5002620;28;20525;-85
2022/07/05 11:11:23;;;;;;;1.70;1.20;;;;;;;;;;5004888;28;20188;-85
2022/07/05 11:13:49;;;;;;;0.95;0.90;;;;;;;;;;5008421;28;20196;-85
2022/07/05 11:16:26;;;;;;;0.75;0.70;;;;;;;;;;5002500;28;20175;-85
2022/07/05 11:18:53;;;;;;;1.25;1.15;;;;;;;;;;5019220;28;20662;-85
2022/07/05 11:21:21;;;;;;;1.88;0.98;;;;;;;;;;5003547;28;20227;-85
2022/07/05 11:23:47;;;;;;;1.23;1.00;;;;;;;;;;4994840;28;20245;-85
2022/07/05 11:26:13;;;;;;;2.10;0.82;;;;;;;;;;5002585;28;20184;-85
2022/07/05 11:28:46;;;;;;;1.92;1.00;;;;;;;;;;4997275;28;20186;-85
2022/07/05 11:31:13;;;;;;;1.10;1.00;;;;;;;;;;5005039;28;20512;-86
2022/07/05 11:33:43;;;;;;;1.17;1.00;;;;;;;;;;5007758;28;20203;-85
2022/07/05 11:36:28;;;;;;;1.98;1.38;;;;;;;;;;5003160;28;20649;-85
2022/07/05 11:39:15;;;;;;;1.95;1.02;;;;;;;;;;5018326;28;20187;-85
2022/07/05 11:41:42;;;;;;;1.13;1.02;;;;;;;;;;4990708;28;20342;-87
2022/07/05 11:44:08;;;;;;;1.08;0.75;;;;;;;;;;5002429;28;20203;-87
2022/07/05 11:46:34;;;;;;;1.00;0.80;;;;;;;;;;5002070;28;20191;-87
2022/07/05 11:49:01;;;;;;;1.35;0.90;;;;;;;;;;5017482;28;20195;-86
2022/07/05 11:51:27;;;;;;;1.08;0.80;;;;;;;;;;5000623;28;20183;-86
2022/07/05 11:53:53;;;;;;;0.77;0.70;;;;;;;;;;5001320;28;20229;-87
2022/07/05 11:56:19;;;;;;;1.30;1.00;;;;;;;;;;5002309;28;20735;-88
2022/07/05 11:58:45;;;;;;;1.08;0.88;;;;;;;;;;5002969;28;20653;-87
2022/07/05 12:01:11;;;;;;;1.70;0.90;;;;;;;;;;5001062;28;20195;-86
2022/07/05 12:03:39;;;;;;;0.82;0.82;;;;;;;;;;5003295;28;20424;-86
2022/07/05 12:06:15;;;;;;;2.45;1.20;;;;;;;;;;5001138;28;20180;-86
2022/07/05 12:08:41;;;;;;;2.20;0.90;;;;;;;;;;5002774;28;20617;-86
2022/07/05 12:13:55;;;;;;;0.70;0.70;;;;;;;;;;5003144;28;20591;-86
2022/07/05 12:16:21;;;;;;;1.88;0.70;;;;;;;;;;5000915;28;20259;-86
2022/07/05 12:18:51;;;;;;;1.27;1.00;;;;;;;;;;5002951;28;20904;-86
2022/07/05 12:21:20;;;;;;;0.90;0.90;;;;;;;;;;5017823;28;20196;-86
2022/07/05 12:23:46;;;;;;;0.95;0.90;;;;;;;;;;5017471;28;20208;-86
2022/07/05 12:26:13;;;;;;;1.17;0.80;;;;;;;;;;5001379;28;20187;-86
2022/07/05 12:28:39;;;;;;;1.15;0.77;;;;;;;;;;5001283;28;20180;-87
2022/07/05 12:31:18;;;;;;;0.85;0.60;;;;;;;;;;5002704;28;20191;-86
2022/07/05 12:33:44;;;;;;;1.30;0.80;;;;;;;;;;4993046;28;20290;-86
2022/07/05 12:36:17;;;;;;;1.05;0.80;;;;;;;;;;5002663;28;20186;-86
2022/07/05 12:38:43;;;;;;;0.95;0.70;;;;;;;;;;4993108;28;20565;-87
2022/07/05 12:41:10;;;;;;;1.10;1.00;;;;;;;;;;5001343;28;20267;-86
2022/07/05 12:43:52;;;;;;;1.10;0.70;;;;;;;;;;5002002;28;20226;-86
2022/07/05 12:46:18;;;;;;;1.30;1.20;;;;;;;;;;5008898;28;20186;-83
2022/07/05 12:48:45;;;;;;;0.75;0.73;;;;;;;;;;5024390;28;20652;-84
2022/07/05 12:51:11;;;;;;;1.95;0.77;;;;;;;;;;5008979;28;20186;-84
2022/07/05 12:59:17;;;;;;;0.70;0.70;;;;;;;;;;5008981;28;20246;-83
2022/07/05 13:01:44;;;;;;;1.23;0.80;;;;;;;;;;5008706;28;20175;-84
2022/07/05 13:04:11;;;;;;;1.20;0.77;;;;;;;;;;5007622;28;20613;-84
2022/07/05 13:06:50;;;;;;;1.17;0.70;;;;;;;;;;5009031;28;20665;-84
2022/07/05 13:09:32;;;;;;;2.35;0.70;;;;;;;;;;5007002;28;20258;-84
2022/07/05 13:12:19;;;;;;;0.93;0.60;;;;;;;;;;5007246;28;20183;-83
2022/07/05 13:14:48;;;;;;;0.73;0.73;;;;;;;;;;4991365;28;20175;-83
2022/07/05 13:17:15;;;;;;;0.60;0.60;;;;;;;;;;5006873;28;20211;-84
2022/07/05 13:19:42;;;;;;;2.30;0.70;;;;;;;;;;5007034;28;20176;-83
2022/07/05 13:22:08;;;;;;;1.42;0.80;;;;;;;;;;5006958;28;20202;-84
2022/07/05 13:24:34;;;;;;;2.53;0.75;;;;;;;;;;5007130;28;20203;-84
2022/07/05 13:27:00;;;;;;;1.45;1.17;;;;;;;;;;5007098;28;20527;-83
2022/07/05 13:29:26;;;;;;;1.33;0.60;;;;;;;;;;5007239;28;20187;-83
2022/07/05 13:31:53;;;;;;;0.70;0.63;;;;;;;;;;5008678;28;20180;-84
2022/07/05 13:34:19;;;;;;;1.63;0.77;;;;;;;;;;5009137;28;20297;-84
2022/07/05 13:36:45;;;;;;;1.33;0.70;;;;;;;;;;5006633;28;20203;-85
2022/07/05 13:39:11;;;;;;;1.13;0.52;;;;;;;;;;5007085;28;20183;-83
2022/07/05 13:41:37;;;;;;;1.63;0.75;;;;;;;;;;5006718;28;20171;-84
2022/07/05 13:44:03;;;;;;;1.17;0.68;;;;;;;;;;5010963;28;20204;-83
2022/07/05 13:46:29;;;;;;;0.80;0.80;;;;;;;;;;5007603;28;20187;-81
2022/07/05 13:48:55;;;;;;;1.83;0.50;;;;;;;;;;5008276;28;20198;-81
2022/07/05 13:51:21;;;;;;;0.63;0.57;;;;;;;;;;5006529;28;20641;-81
2022/07/05 13:53:47;;;;;;;2.45;0.70;;;;;;;;;;5008424;28;20278;-81
2022/07/05 13:56:13;;;;;;;1.35;0.80;;;;;;;;;;5004570;28;20207;-82
2022/07/05 13:58:39;;;;;;;1.70;0.60;;;;;;;;;;5020145;28;20589;-81
2022/07/05 14:01:05;;;;;;;1.50;0.70;;;;;;;;;;5004751;28;20237;-80
2022/07/05 14:03:31;;;;;;;1.65;0.73;;;;;;;;;;5003203;28;20215;-80
2022/07/05 14:05:58;;;;;;;1.67;0.68;;;;;;;;;;5003497;28;20188;-82
2022/07/05 14:08:24;;;;;;;1.13;0.60;;;;;;;;;;5004539;28;20885;-80
2022/07/05 14:10:51;;;;;;;1.98;0.73;;;;;;;;;;5005088;28;20259;-81
2022/07/05 14:13:21;;;;;;;0.73;0.63;;;;;;;;;;5005147;28;20203;-82
2022/07/05 14:15:47;;;;;;;0.70;0.60;;;;;;;;;;5004072;28;20191;-82
2022/07/05 14:18:17;;;;;;;1.83;0.70;;;;;;;;;;5004942;28;20219;-83
2022/07/05 14:20:43;;;;;;;1.13;0.60;;;;;;;;;;5008611;28;20202;-81
2022/07/05 14:23:16;;;;;;;2.22;0.70;;;;;;;;;;5003261;28;20246;-81
2022/07/05 14:25:42;;;;;;;0.63;0.50;;;;;;;;;;5003608;28;20176;-81
2022/07/05 14:28:09;;;;;;;0.90;0.60;;;;;;;;;;5002978;28;20192;-81
2022/07/05 14:30:38;;;;;;;0.90;0.63;;;;;;;;;;5004920;28;20194;-80
2022/07/05 14:33:05;;;;;;;0.55;0.50;;;;;;;;;;4986995;28;20451;-81
2022/07/05 14:35:31;;;;;;;1.05;0.50;;;;;;;;;;5004895;28;20199;-81
2022/07/05 14:37:58;;;;;;;0.80;0.60;;;;;;;;;;5003150;28;20215;-81
2022/07/05 14:40:24;;;;;;;0.82;0.50;;;;;;;;;;5004810;28;20313;-81
2022/07/05 14:42:51;;;;;;;0.40;0.40;;;;;;;;;;5018962;28;20195;-81
2022/07/05 14:45:17;;;;;;;1.10;0.57;;;;;;;;;;5004667;28;20188;-81
2022/07/05 14:47:43;;;;;;;0.90;0.77;;;;;;;;;;5004146;28;20202;-81
2022/07/05 14:50:09;;;;;;;0.98;0.60;;;;;;;;;;5002943;28;20195;-81
2022/07/05 14:52:35;;;;;;;1.80;0.47;;;;;;;;;;5004345;28;20207;-81
2022/07/05 14:55:01;;;;;;;1.17;0.50;;;;;;;;;;5002882;28;20567;-80
2022/07/05 14:57:27;;;;;;;1.00;0.60;;;;;;;;;;5002684;28;20235;-82